sensor_id;sensor_type;location;lat;lon;timestamp;P1;durP1;ratioP1;P2;durP2;ratioP2
54919;SDS011;63804;53.120;8.764;2022-11-20T00:00:48;18.55;;;10.35;;
54919;SDS011;63804;53.120;8.764;2022-11-20T00:03:14;19.95;;;10.80;;
54919;SDS011;63804;53.120;8.764;2022-11-20T00:05:40;17.08;;;10.63;;
54919;SDS011;63804;53.120;8.764;2022-11-20T00:08:06;17.70;;;10.10;;
54919;SDS011;63804;53.120;8.764;2022-11-20T00:10:31;17.48;;;10.13;;
54919;SDS011;63804;53.120;8.764;2022-11-20T00:12:57;19.98;;;10.63;;
54919;SDS011;63804;53.120;8.764;2022-11-20T00:15:23;18.85;;;10.18;;
54919;SDS011;63804;53.120;8.764;2022-11-20T00:17:49;18.90;;;10.48;;
54919;SDS011;63804;53.120;8.764;2022-11-20T00:20:15;20.02;;;10.88;;
54919;SDS011;63804;53.120;8.764;2022-11-20T00:22:41;19.75;;;11.38;;
54919;SDS011;63804;53.120;8.764;2022-11-20T00:25:07;19.50;;;10.93;;
54919;SDS011;63804;53.120;8.764;2022-11-20T00:27:32;18.27;;;10.45;;
54919;SDS011;63804;53.120;8.764;2022-11-20T00:29:58;21.50;;;10.77;;
54919;SDS011;63804;53.120;8.764;2022-11-20T00:32:24;17.13;;;10.15;;
54919;SDS011;63804;53.120;8.764;2022-11-20T00:34:49;20.13;;;11.43;;
54919;SDS011;63804;53.120;8.764;2022-11-20T00:37:15;19.70;;;10.45;;
54919;SDS011;63804;53.120;8.764;2022-11-20T00:39:41;19.15;;;10.52;;
54919;SDS011;63804;53.120;8.764;2022-11-20T00:42:07;16.35;;;9.80;;
54919;SDS011;63804;53.120;8.764;2022-11-20T00:44:32;19.63;;;10.18;;
54919;SDS011;63804;53.120;8.764;2022-11-20T00:46:58;18.17;;;10.32;;
54919;SDS011;63804;53.120;8.764;2022-11-20T00:49:23;19.20;;;10.45;;
54919;SDS011;63804;53.120;8.764;2022-11-20T00:51:49;17.67;;;10.60;;
54919;SDS011;63804;53.120;8.764;2022-11-20T00:54:15;17.75;;;10.43;;
54919;SDS011;63804;53.120;8.764;2022-11-20T00:56:40;16.63;;;10.40;;
54919;SDS011;63804;53.120;8.764;2022-11-20T00:59:08;17.80;;;10.60;;
54919;SDS011;63804;53.120;8.764;2022-11-20T01:01:34;20.27;;;10.40;;
54919;SDS011;63804;53.120;8.764;2022-11-20T01:04:01;19.90;;;10.05;;
54919;SDS011;63804;53.120;8.764;2022-11-20T01:06:28;19.75;;;10.70;;
54919;SDS011;63804;53.120;8.764;2022-11-20T01:08:57;21.30;;;11.00;;
54919;SDS011;63804;53.120;8.764;2022-11-20T01:11:27;17.80;;;10.57;;
54919;SDS011;63804;53.120;8.764;2022-11-20T01:13:56;19.88;;;10.60;;
54919;SDS011;63804;53.120;8.764;2022-11-20T01:16:29;18.25;;;10.15;;
54919;SDS011;63804;53.120;8.764;2022-11-20T01:18:58;19.27;;;10.32;;
54919;SDS011;63804;53.120;8.764;2022-11-20T01:21:32;20.52;;;10.48;;
54919;SDS011;63804;53.120;8.764;2022-11-20T01:24:02;18.85;;;10.25;;
54919;SDS011;63804;53.120;8.764;2022-11-20T01:26:31;18.90;;;10.70;;
54919;SDS011;63804;53.120;8.764;2022-11-20T01:28:58;21.58;;;11.52;;
54919;SDS011;63804;53.120;8.764;2022-11-20T01:31:29;19.05;;;10.52;;
54919;SDS011;63804;53.120;8.764;2022-11-20T01:33:57;20.65;;;10.77;;
54919;SDS011;63804;53.120;8.764;2022-11-20T01:36:26;19.17;;;10.60;;
54919;SDS011;63804;53.120;8.764;2022-11-20T01:38:55;18.15;;;10.75;;
54919;SDS011;63804;53.120;8.764;2022-11-20T01:41:23;19.67;;;11.50;;
54919;SDS011;63804;53.120;8.764;2022-11-20T01:44:10;20.30;;;11.32;;
54919;SDS011;63804;53.120;8.764;2022-11-20T01:46:40;19.75;;;10.85;;
54919;SDS011;63804;53.120;8.764;2022-11-20T01:51:51;19.35;;;10.55;;
54919;SDS011;63804;53.120;8.764;2022-11-20T01:54:38;19.15;;;10.73;;
54919;SDS011;63804;53.120;8.764;2022-11-20T01:57:12;16.35;;;10.10;;
54919;SDS011;63804;53.120;8.764;2022-11-20T01:59:40;21.38;;;10.65;;
54919;SDS011;63804;53.120;8.764;2022-11-20T02:02:10;19.13;;;10.88;;
54919;SDS011;63804;53.120;8.764;2022-11-20T02:04:36;16.38;;;9.80;;
54919;SDS011;63804;53.120;8.764;2022-11-20T02:07:02;17.10;;;9.70;;
54919;SDS011;63804;53.120;8.764;2022-11-20T02:09:30;20.98;;;11.07;;
54919;SDS011;63804;53.120;8.764;2022-11-20T02:11:56;19.48;;;11.23;;
54919;SDS011;63804;53.120;8.764;2022-11-20T02:17:02;19.65;;;11.20;;
54919;SDS011;63804;53.120;8.764;2022-11-20T02:19:30;21.60;;;10.63;;
54919;SDS011;63804;53.120;8.764;2022-11-20T02:24:42;18.77;;;10.70;;
54919;SDS011;63804;53.120;8.764;2022-11-20T02:27:11;18.17;;;10.15;;
54919;SDS011;63804;53.120;8.764;2022-11-20T02:29:44;19.38;;;11.02;;
54919;SDS011;63804;53.120;8.764;2022-11-20T02:32:24;18.55;;;9.88;;
54919;SDS011;63804;53.120;8.764;2022-11-20T02:34:57;18.30;;;10.18;;
54919;SDS011;63804;53.120;8.764;2022-11-20T02:37:23;18.92;;;10.98;;
54919;SDS011;63804;53.120;8.764;2022-11-20T02:39:58;18.20;;;10.23;;
54919;SDS011;63804;53.120;8.764;2022-11-20T02:42:24;19.45;;;10.32;;
54919;SDS011;63804;53.120;8.764;2022-11-20T02:44:49;21.77;;;11.02;;
54919;SDS011;63804;53.120;8.764;2022-11-20T02:47:15;20.08;;;10.38;;
54919;SDS011;63804;53.120;8.764;2022-11-20T02:49:41;19.38;;;11.02;;
54919;SDS011;63804;53.120;8.764;2022-11-20T02:52:06;18.65;;;9.80;;
54919;SDS011;63804;53.120;8.764;2022-11-20T02:54:32;19.55;;;10.77;;
54919;SDS011;63804;53.120;8.764;2022-11-20T02:56:58;18.30;;;10.07;;
54919;SDS011;63804;53.120;8.764;2022-11-20T02:59:23;18.45;;;10.02;;
54919;SDS011;63804;53.120;8.764;2022-11-20T03:01:49;17.55;;;9.65;;
54919;SDS011;63804;53.120;8.764;2022-11-20T03:04:15;19.42;;;10.00;;
54919;SDS011;63804;53.120;8.764;2022-11-20T03:06:40;19.02;;;9.65;;
54919;SDS011;63804;53.120;8.764;2022-11-20T03:09:06;18.45;;;9.23;;
54919;SDS011;63804;53.120;8.764;2022-11-20T03:11:32;20.13;;;10.07;;
54919;SDS011;63804;53.120;8.764;2022-11-20T03:14:01;20.02;;;9.52;;
54919;SDS011;63804;53.120;8.764;2022-11-20T03:16:28;18.80;;;9.68;;
54919;SDS011;63804;53.120;8.764;2022-11-20T03:18:53;17.92;;;9.20;;
54919;SDS011;63804;53.120;8.764;2022-11-20T03:21:19;17.15;;;9.27;;
54919;SDS011;63804;53.120;8.764;2022-11-20T03:23:45;17.55;;;9.60;;
54919;SDS011;63804;53.120;8.764;2022-11-20T03:26:12;16.27;;;8.75;;
54919;SDS011;63804;53.120;8.764;2022-11-20T03:28:39;18.38;;;9.63;;
54919;SDS011;63804;53.120;8.764;2022-11-20T03:31:09;17.45;;;9.38;;
54919;SDS011;63804;53.120;8.764;2022-11-20T03:33:37;18.15;;;9.65;;
54919;SDS011;63804;53.120;8.764;2022-11-20T03:36:04;17.05;;;9.10;;
54919;SDS011;63804;53.120;8.764;2022-11-20T03:38:31;18.65;;;8.60;;
54919;SDS011;63804;53.120;8.764;2022-11-20T03:40:58;17.08;;;9.30;;
54919;SDS011;63804;53.120;8.764;2022-11-20T03:43:26;16.15;;;8.75;;
54919;SDS011;63804;53.120;8.764;2022-11-20T03:45:52;17.98;;;9.38;;
54919;SDS011;63804;53.120;8.764;2022-11-20T03:48:17;15.98;;;9.27;;
54919;SDS011;63804;53.120;8.764;2022-11-20T03:50:49;18.02;;;9.30;;
54919;SDS011;63804;53.120;8.764;2022-11-20T03:53:15;16.15;;;8.95;;
54919;SDS011;63804;53.120;8.764;2022-11-20T03:55:41;17.17;;;8.88;;
54919;SDS011;63804;53.120;8.764;2022-11-20T03:58:08;19.27;;;9.23;;
54919;SDS011;63804;53.120;8.764;2022-11-20T04:00:34;18.52;;;9.07;;
54919;SDS011;63804;53.120;8.764;2022-11-20T04:03:00;18.60;;;9.13;;
54919;SDS011;63804;53.120;8.764;2022-11-20T04:05:27;19.40;;;8.75;;
54919;SDS011;63804;53.120;8.764;2022-11-20T04:07:53;18.40;;;8.02;;
54919;SDS011;63804;53.120;8.764;2022-11-20T04:10:19;15.68;;;8.35;;
54919;SDS011;63804;53.120;8.764;2022-11-20T04:12:45;16.80;;;8.52;;
54919;SDS011;63804;53.120;8.764;2022-11-20T04:15:10;15.95;;;8.27;;
54919;SDS011;63804;53.120;8.764;2022-11-20T04:17:36;15.85;;;8.00;;
54919;SDS011;63804;53.120;8.764;2022-11-20T04:20:02;14.82;;;7.82;;
54919;SDS011;63804;53.120;8.764;2022-11-20T04:22:28;16.52;;;8.35;;
54919;SDS011;63804;53.120;8.764;2022-11-20T04:24:53;15.45;;;7.97;;
54919;SDS011;63804;53.120;8.764;2022-11-20T04:27:19;15.48;;;8.15;;
54919;SDS011;63804;53.120;8.764;2022-11-20T04:29:45;15.48;;;7.60;;
54919;SDS011;63804;53.120;8.764;2022-11-20T04:32:10;16.08;;;7.78;;
54919;SDS011;63804;53.120;8.764;2022-11-20T04:34:36;14.13;;;7.43;;
54919;SDS011;63804;53.120;8.764;2022-11-20T04:37:01;14.85;;;7.63;;
54919;SDS011;63804;53.120;8.764;2022-11-20T04:39:27;16.13;;;7.35;;
54919;SDS011;63804;53.120;8.764;2022-11-20T04:41:53;13.40;;;7.13;;
54919;SDS011;63804;53.120;8.764;2022-11-20T04:44:38;16.33;;;7.30;;
54919;SDS011;63804;53.120;8.764;2022-11-20T04:47:04;13.95;;;7.35;;
54919;SDS011;63804;53.120;8.764;2022-11-20T04:49:30;15.45;;;7.40;;
54919;SDS011;63804;53.120;8.764;2022-11-20T04:51:57;13.27;;;7.07;;
54919;SDS011;63804;53.120;8.764;2022-11-20T04:54:23;15.90;;;6.90;;
54919;SDS011;63804;53.120;8.764;2022-11-20T04:56:49;15.50;;;7.53;;
54919;SDS011;63804;53.120;8.764;2022-11-20T04:59:15;16.30;;;7.22;;
54919;SDS011;63804;53.120;8.764;2022-11-20T05:01:41;13.07;;;6.82;;
54919;SDS011;63804;53.120;8.764;2022-11-20T05:04:07;13.68;;;7.25;;
54919;SDS011;63804;53.120;8.764;2022-11-20T05:06:33;13.35;;;6.90;;
54919;SDS011;63804;53.120;8.764;2022-11-20T05:08:59;14.02;;;7.20;;
54919;SDS011;63804;53.120;8.764;2022-11-20T05:11:26;13.23;;;7.00;;
54919;SDS011;63804;53.120;8.764;2022-11-20T05:13:54;15.27;;;7.28;;
54919;SDS011;63804;53.120;8.764;2022-11-20T05:16:21;18.95;;;8.18;;
54919;SDS011;63804;53.120;8.764;2022-11-20T05:18:49;14.43;;;7.32;;
54919;SDS011;63804;53.120;8.764;2022-11-20T05:21:16;15.98;;;6.90;;
54919;SDS011;63804;53.120;8.764;2022-11-20T05:23:42;13.40;;;7.10;;
54919;SDS011;63804;53.120;8.764;2022-11-20T05:26:12;13.55;;;7.20;;
54919;SDS011;63804;53.120;8.764;2022-11-20T05:28:40;15.95;;;7.43;;
54919;SDS011;63804;53.120;8.764;2022-11-20T05:31:06;13.20;;;6.68;;
54919;SDS011;63804;53.120;8.764;2022-11-20T05:33:33;14.05;;;7.13;;
54919;SDS011;63804;53.120;8.764;2022-11-20T05:36:00;13.10;;;6.80;;
54919;SDS011;63804;53.120;8.764;2022-11-20T05:38:26;13.77;;;6.95;;
54919;SDS011;63804;53.120;8.764;2022-11-20T05:40:52;13.75;;;6.57;;
54919;SDS011;63804;53.120;8.764;2022-11-20T05:43:18;13.15;;;6.72;;
54919;SDS011;63804;53.120;8.764;2022-11-20T05:45:51;13.77;;;7.30;;
54919;SDS011;63804;53.120;8.764;2022-11-20T05:48:18;12.93;;;6.68;;
54919;SDS011;63804;53.120;8.764;2022-11-20T05:50:43;15.68;;;7.85;;
54919;SDS011;63804;53.120;8.764;2022-11-20T05:53:09;14.95;;;7.22;;
54919;SDS011;63804;53.120;8.764;2022-11-20T05:55:35;13.98;;;7.15;;
54919;SDS011;63804;53.120;8.764;2022-11-20T05:58:00;14.18;;;7.05;;
54919;SDS011;63804;53.120;8.764;2022-11-20T06:00:26;15.70;;;6.85;;
54919;SDS011;63804;53.120;8.764;2022-11-20T06:02:52;14.02;;;7.13;;
54919;SDS011;63804;53.120;8.764;2022-11-20T06:05:17;13.85;;;7.15;;
54919;SDS011;63804;53.120;8.764;2022-11-20T06:07:43;14.20;;;7.47;;
54919;SDS011;63804;53.120;8.764;2022-11-20T06:10:09;15.93;;;7.88;;
54919;SDS011;63804;53.120;8.764;2022-11-20T06:12:35;15.98;;;7.85;;
54919;SDS011;63804;53.120;8.764;2022-11-20T06:15:00;13.20;;;7.10;;
54919;SDS011;63804;53.120;8.764;2022-11-20T06:17:26;14.70;;;7.40;;
54919;SDS011;63804;53.120;8.764;2022-11-20T06:19:52;17.40;;;7.13;;
54919;SDS011;63804;53.120;8.764;2022-11-20T06:22:17;14.43;;;6.82;;
54919;SDS011;63804;53.120;8.764;2022-11-20T06:24:43;13.75;;;7.20;;
54919;SDS011;63804;53.120;8.764;2022-11-20T06:27:09;18.02;;;8.43;;
54919;SDS011;63804;53.120;8.764;2022-11-20T06:29:34;18.20;;;8.90;;
54919;SDS011;63804;53.120;8.764;2022-11-20T06:32:00;17.92;;;8.60;;
54919;SDS011;63804;53.120;8.764;2022-11-20T06:34:26;16.08;;;8.80;;
54919;SDS011;63804;53.120;8.764;2022-11-20T06:36:52;15.43;;;8.38;;
54919;SDS011;63804;53.120;8.764;2022-11-20T06:39:17;15.93;;;9.13;;
54919;SDS011;63804;53.120;8.764;2022-11-20T06:41:43;15.93;;;8.65;;
54919;SDS011;63804;53.120;8.764;2022-11-20T06:44:09;18.15;;;8.70;;
54919;SDS011;63804;53.120;8.764;2022-11-20T06:46:34;15.30;;;8.25;;
54919;SDS011;63804;53.120;8.764;2022-11-20T06:49:00;12.88;;;7.03;;
54919;SDS011;63804;53.120;8.764;2022-11-20T06:51:26;15.48;;;6.75;;
54919;SDS011;63804;53.120;8.764;2022-11-20T06:53:51;13.20;;;7.18;;
54919;SDS011;63804;53.120;8.764;2022-11-20T06:56:18;15.00;;;6.55;;
54919;SDS011;63804;53.120;8.764;2022-11-20T06:58:44;13.18;;;6.97;;
54919;SDS011;63804;53.120;8.764;2022-11-20T07:01:10;14.80;;;7.30;;
54919;SDS011;63804;53.120;8.764;2022-11-20T07:03:38;14.52;;;7.18;;
54919;SDS011;63804;53.120;8.764;2022-11-20T07:06:04;13.93;;;7.05;;
54919;SDS011;63804;53.120;8.764;2022-11-20T07:08:30;12.63;;;7.03;;
54919;SDS011;63804;53.120;8.764;2022-11-20T07:10:57;13.73;;;6.53;;
54919;SDS011;63804;53.120;8.764;2022-11-20T07:13:25;14.68;;;6.70;;
54919;SDS011;63804;53.120;8.764;2022-11-20T07:15:51;13.27;;;6.78;;
54919;SDS011;63804;53.120;8.764;2022-11-20T07:18:16;12.95;;;6.85;;
54919;SDS011;63804;53.120;8.764;2022-11-20T07:20:42;15.23;;;7.63;;
54919;SDS011;63804;53.120;8.764;2022-11-20T07:23:08;13.77;;;6.93;;
54919;SDS011;63804;53.120;8.764;2022-11-20T07:25:33;12.25;;;6.55;;
54919;SDS011;63804;53.120;8.764;2022-11-20T07:27:59;13.15;;;7.05;;
54919;SDS011;63804;53.120;8.764;2022-11-20T07:30:26;13.75;;;6.97;;
54919;SDS011;63804;53.120;8.764;2022-11-20T07:32:55;16.27;;;7.43;;
54919;SDS011;63804;53.120;8.764;2022-11-20T07:35:22;13.95;;;7.32;;
54919;SDS011;63804;53.120;8.764;2022-11-20T07:37:49;14.77;;;7.20;;
54919;SDS011;63804;53.120;8.764;2022-11-20T07:40:15;15.07;;;7.45;;
54919;SDS011;63804;53.120;8.764;2022-11-20T07:42:48;15.30;;;6.90;;
54919;SDS011;63804;53.120;8.764;2022-11-20T07:45:15;25.00;;;7.53;;
54919;SDS011;63804;53.120;8.764;2022-11-20T07:47:41;17.02;;;7.43;;
54919;SDS011;63804;53.120;8.764;2022-11-20T07:50:07;15.43;;;7.65;;
54919;SDS011;63804;53.120;8.764;2022-11-20T07:52:33;14.07;;;6.80;;
54919;SDS011;63804;53.120;8.764;2022-11-20T07:54:59;14.70;;;7.57;;
54919;SDS011;63804;53.120;8.764;2022-11-20T07:57:24;16.42;;;7.40;;
54919;SDS011;63804;53.120;8.764;2022-11-20T07:59:50;13.70;;;7.30;;
54919;SDS011;63804;53.120;8.764;2022-11-20T08:02:16;14.38;;;7.00;;
54919;SDS011;63804;53.120;8.764;2022-11-20T08:04:41;18.50;;;8.00;;
54919;SDS011;63804;53.120;8.764;2022-11-20T08:07:07;16.55;;;7.88;;
54919;SDS011;63804;53.120;8.764;2022-11-20T08:09:33;16.00;;;8.00;;
54919;SDS011;63804;53.120;8.764;2022-11-20T08:11:58;16.35;;;8.27;;
54919;SDS011;63804;53.120;8.764;2022-11-20T08:14:49;14.43;;;7.82;;
54919;SDS011;63804;53.120;8.764;2022-11-20T08:17:14;14.57;;;7.80;;
54919;SDS011;63804;53.120;8.764;2022-11-20T08:19:40;17.05;;;8.50;;
54919;SDS011;63804;53.120;8.764;2022-11-20T08:22:06;14.93;;;8.35;;
54919;SDS011;63804;53.120;8.764;2022-11-20T08:24:31;16.55;;;7.90;;
54919;SDS011;63804;53.120;8.764;2022-11-20T08:26:58;15.05;;;7.85;;
54919;SDS011;63804;53.120;8.764;2022-11-20T08:29:25;16.55;;;8.35;;
54919;SDS011;63804;53.120;8.764;2022-11-20T08:31:51;15.63;;;8.10;;
54919;SDS011;63804;53.120;8.764;2022-11-20T08:34:17;17.52;;;8.43;;
54919;SDS011;63804;53.120;8.764;2022-11-20T08:36:43;17.98;;;8.70;;
54919;SDS011;63804;53.120;8.764;2022-11-20T08:39:11;16.13;;;8.32;;
54919;SDS011;63804;53.120;8.764;2022-11-20T08:41:37;18.42;;;8.77;;
54919;SDS011;63804;53.120;8.764;2022-11-20T08:44:03;17.67;;;8.85;;
54919;SDS011;63804;53.120;8.764;2022-11-20T08:46:34;19.77;;;9.23;;
54919;SDS011;63804;53.120;8.764;2022-11-20T08:49:06;18.63;;;8.95;;
54919;SDS011;63804;53.120;8.764;2022-11-20T08:51:37;16.35;;;9.07;;
54919;SDS011;63804;53.120;8.764;2022-11-20T08:54:04;16.20;;;8.93;;
54919;SDS011;63804;53.120;8.764;2022-11-20T08:56:30;14.93;;;8.35;;
54919;SDS011;63804;53.120;8.764;2022-11-20T08:58:56;15.23;;;8.65;;
54919;SDS011;63804;53.120;8.764;2022-11-20T09:01:22;16.73;;;9.18;;
54919;SDS011;63804;53.120;8.764;2022-11-20T09:03:49;15.18;;;8.57;;
54919;SDS011;63804;53.120;8.764;2022-11-20T09:06:14;17.17;;;9.18;;
54919;SDS011;63804;53.120;8.764;2022-11-20T09:08:41;15.98;;;8.68;;
54919;SDS011;63804;53.120;8.764;2022-11-20T09:11:07;15.88;;;8.48;;
54919;SDS011;63804;53.120;8.764;2022-11-20T09:13:34;16.02;;;8.43;;
54919;SDS011;63804;53.120;8.764;2022-11-20T09:16:05;14.23;;;8.25;;
54919;SDS011;63804;53.120;8.764;2022-11-20T09:18:33;17.02;;;9.10;;
54919;SDS011;63804;53.120;8.764;2022-11-20T09:21:02;18.58;;;9.30;;
54919;SDS011;63804;53.120;8.764;2022-11-20T09:23:33;16.35;;;8.13;;
54919;SDS011;63804;53.120;8.764;2022-11-20T09:26:09;15.93;;;8.82;;
54919;SDS011;63804;53.120;8.764;2022-11-20T09:28:38;16.83;;;9.15;;
54919;SDS011;63804;53.120;8.764;2022-11-20T09:31:08;17.70;;;9.10;;
54919;SDS011;63804;53.120;8.764;2022-11-20T09:33:40;15.00;;;8.77;;
54919;SDS011;63804;53.120;8.764;2022-11-20T09:36:06;15.85;;;8.85;;
54919;SDS011;63804;53.120;8.764;2022-11-20T09:38:32;16.25;;;9.35;;
54919;SDS011;63804;53.120;8.764;2022-11-20T09:40:58;17.63;;;9.07;;
54919;SDS011;63804;53.120;8.764;2022-11-20T09:43:47;17.23;;;9.10;;
54919;SDS011;63804;53.120;8.764;2022-11-20T09:54:19;17.00;;;9.30;;
54919;SDS011;63804;53.120;8.764;2022-11-20T09:56:49;17.35;;;9.38;;
54919;SDS011;63804;53.120;8.764;2022-11-20T09:59:39;16.77;;;9.07;;
54919;SDS011;63804;53.120;8.764;2022-11-20T10:02:24;20.77;;;10.18;;
54919;SDS011;63804;53.120;8.764;2022-11-20T10:04:59;18.10;;;9.07;;
54919;SDS011;63804;53.120;8.764;2022-11-20T10:07:34;19.40;;;10.18;;
54919;SDS011;63804;53.120;8.764;2022-11-20T10:10:13;17.65;;;10.10;;
54919;SDS011;63804;53.120;8.764;2022-11-20T10:15:12;22.65;;;11.00;;
54919;SDS011;63804;53.120;8.764;2022-11-20T10:29:12;19.42;;;11.00;;
54919;SDS011;63804;53.120;8.764;2022-11-20T10:31:40;20.98;;;11.27;;
54919;SDS011;63804;53.120;8.764;2022-11-20T10:34:24;17.73;;;10.30;;
54919;SDS011;63804;53.120;8.764;2022-11-20T10:36:56;19.70;;;10.85;;
54919;SDS011;63804;53.120;8.764;2022-11-20T10:42:13;27.83;;;11.23;;
54919;SDS011;63804;53.120;8.764;2022-11-20T10:44:49;16.52;;;10.10;;
54919;SDS011;63804;53.120;8.764;2022-11-20T10:47:26;17.73;;;10.30;;
54919;SDS011;63804;53.120;8.764;2022-11-20T10:49:55;19.90;;;11.32;;
54919;SDS011;63804;53.120;8.764;2022-11-20T10:58:13;18.50;;;10.90;;
54919;SDS011;63804;53.120;8.764;2022-11-20T11:00:48;15.73;;;9.82;;
54919;SDS011;63804;53.120;8.764;2022-11-20T11:03:20;16.70;;;9.15;;
54919;SDS011;63804;53.120;8.764;2022-11-20T11:05:53;17.40;;;9.98;;
54919;SDS011;63804;53.120;8.764;2022-11-20T11:10:54;17.75;;;9.45;;
54919;SDS011;63804;53.120;8.764;2022-11-20T11:13:24;18.27;;;9.05;;
54919;SDS011;63804;53.120;8.764;2022-11-20T11:15:50;15.63;;;9.23;;
54919;SDS011;63804;53.120;8.764;2022-11-20T11:18:26;18.52;;;9.32;;
54919;SDS011;63804;53.120;8.764;2022-11-20T11:20:57;16.75;;;9.73;;
54919;SDS011;63804;53.120;8.764;2022-11-20T11:25:58;16.67;;;9.43;;
54919;SDS011;63804;53.120;8.764;2022-11-20T11:28:25;16.38;;;8.65;;
54919;SDS011;63804;53.120;8.764;2022-11-20T11:30:53;15.35;;;8.60;;
54919;SDS011;63804;53.120;8.764;2022-11-20T11:33:33;16.05;;;9.38;;
54919;SDS011;63804;53.120;8.764;2022-11-20T11:35:59;17.67;;;8.95;;
54919;SDS011;63804;53.120;8.764;2022-11-20T11:41:12;18.17;;;8.77;;
54919;SDS011;63804;53.120;8.764;2022-11-20T11:43:49;17.38;;;9.05;;
54919;SDS011;63804;53.120;8.764;2022-11-20T11:46:37;14.95;;;8.35;;
54919;SDS011;63804;53.120;8.764;2022-11-20T11:54:23;15.10;;;8.20;;
54919;SDS011;63804;53.120;8.764;2022-11-20T11:56:51;14.48;;;7.90;;
54919;SDS011;63804;53.120;8.764;2022-11-20T11:59:22;14.13;;;7.90;;
54919;SDS011;63804;53.120;8.764;2022-11-20T12:01:54;15.07;;;8.02;;
54919;SDS011;63804;53.120;8.764;2022-11-20T12:10:21;15.15;;;7.05;;
54919;SDS011;63804;53.120;8.764;2022-11-20T12:13:00;12.68;;;7.30;;
54919;SDS011;63804;53.120;8.764;2022-11-20T12:15:33;13.40;;;7.40;;
54919;SDS011;63804;53.120;8.764;2022-11-20T12:17:59;15.30;;;7.47;;
54919;SDS011;63804;53.120;8.764;2022-11-20T12:20:27;13.57;;;7.47;;
54919;SDS011;63804;53.120;8.764;2022-11-20T12:23:18;14.70;;;7.32;;
54919;SDS011;63804;53.120;8.764;2022-11-20T12:25:53;13.33;;;6.83;;
54919;SDS011;63804;53.120;8.764;2022-11-20T12:31:40;12.18;;;7.22;;
54919;SDS011;63804;53.120;8.764;2022-11-20T12:40:24;12.02;;;6.15;;
54919;SDS011;63804;53.120;8.764;2022-11-20T12:43:04;14.43;;;7.25;;
54919;SDS011;63804;53.120;8.764;2022-11-20T12:46:11;13.88;;;7.00;;
54919;SDS011;63804;53.120;8.764;2022-11-20T12:51:49;13.77;;;6.78;;
54919;SDS011;63804;53.120;8.764;2022-11-20T12:59:58;13.85;;;6.63;;
54919;SDS011;63804;53.120;8.764;2022-11-20T13:02:50;11.60;;;6.65;;
54919;SDS011;63804;53.120;8.764;2022-11-20T13:08:43;14.05;;;6.93;;
54919;SDS011;63804;53.120;8.764;2022-11-20T13:11:09;12.35;;;6.60;;
54919;SDS011;63804;53.120;8.764;2022-11-20T13:16:47;14.60;;;7.40;;
54919;SDS011;63804;53.120;8.764;2022-11-20T13:19:27;14.30;;;7.03;;
54919;SDS011;63804;53.120;8.764;2022-11-20T13:21:54;13.18;;;6.90;;
54919;SDS011;63804;53.120;8.764;2022-11-20T13:29:40;15.60;;;8.13;;
54919;SDS011;63804;53.120;8.764;2022-11-20T13:32:13;14.60;;;7.65;;
54919;SDS011;63804;53.120;8.764;2022-11-20T13:37:37;14.57;;;7.53;;
54919;SDS011;63804;53.120;8.764;2022-11-20T13:43:01;15.85;;;8.05;;
54919;SDS011;63804;53.120;8.764;2022-11-20T13:45:30;15.20;;;7.60;;
54919;SDS011;63804;53.120;8.764;2022-11-20T13:47:59;14.45;;;7.65;;
54919;SDS011;63804;53.120;8.764;2022-11-20T14:01:29;17.55;;;9.55;;
54919;SDS011;63804;53.120;8.764;2022-11-20T14:04:01;18.85;;;9.63;;
54919;SDS011;63804;53.120;8.764;2022-11-20T14:06:41;14.55;;;7.97;;
54919;SDS011;63804;53.120;8.764;2022-11-20T14:09:10;12.60;;;7.40;;
54919;SDS011;63804;53.120;8.764;2022-11-20T14:11:56;15.20;;;7.10;;
54919;SDS011;63804;53.120;8.764;2022-11-20T14:14:24;13.18;;;7.10;;
54919;SDS011;63804;53.120;8.764;2022-11-20T14:19:51;12.70;;;7.20;;
54919;SDS011;63804;53.120;8.764;2022-11-20T14:22:19;12.95;;;7.18;;
54919;SDS011;63804;53.120;8.764;2022-11-20T14:25:00;14.45;;;7.65;;
54919;SDS011;63804;53.120;8.764;2022-11-20T14:27:42;13.55;;;7.15;;
54919;SDS011;63804;53.120;8.764;2022-11-20T14:30:13;15.13;;;8.27;;
54919;SDS011;63804;53.120;8.764;2022-11-20T14:32:42;15.45;;;8.38;;
54919;SDS011;63804;53.120;8.764;2022-11-20T14:35:10;15.35;;;8.32;;
54919;SDS011;63804;53.120;8.764;2022-11-20T14:37:49;15.35;;;8.05;;
54919;SDS011;63804;53.120;8.764;2022-11-20T14:40:29;14.82;;;7.97;;
54919;SDS011;63804;53.120;8.764;2022-11-20T14:42:56;14.23;;;7.80;;
54919;SDS011;63804;53.120;8.764;2022-11-20T14:45:23;13.95;;;7.72;;
54919;SDS011;63804;53.120;8.764;2022-11-20T14:47:51;16.52;;;9.00;;
54919;SDS011;63804;53.120;8.764;2022-11-20T14:50:23;16.80;;;8.55;;
54919;SDS011;63804;53.120;8.764;2022-11-20T14:52:54;16.42;;;8.68;;
54919;SDS011;63804;53.120;8.764;2022-11-20T14:55:28;22.65;;;11.13;;
54919;SDS011;63804;53.120;8.764;2022-11-20T14:57:55;26.35;;;14.13;;
54919;SDS011;63804;53.120;8.764;2022-11-20T15:00:22;28.25;;;14.30;;
54919;SDS011;63804;53.120;8.764;2022-11-20T15:02:49;22.48;;;10.65;;
54919;SDS011;63804;53.120;8.764;2022-11-20T15:05:16;19.50;;;10.35;;
54919;SDS011;63804;53.120;8.764;2022-11-20T15:07:44;17.15;;;9.30;;
54919;SDS011;63804;53.120;8.764;2022-11-20T15:10:13;22.33;;;10.43;;
54919;SDS011;63804;53.120;8.764;2022-11-20T15:12:53;20.88;;;10.88;;
54919;SDS011;63804;53.120;8.764;2022-11-20T15:15:23;20.95;;;11.30;;
54919;SDS011;63804;53.120;8.764;2022-11-20T15:17:55;19.23;;;10.45;;
54919;SDS011;63804;53.120;8.764;2022-11-20T15:20:21;17.33;;;9.88;;
54919;SDS011;63804;53.120;8.764;2022-11-20T15:22:51;15.18;;;8.60;;
54919;SDS011;63804;53.120;8.764;2022-11-20T15:25:17;17.90;;;9.80;;
54919;SDS011;63804;53.120;8.764;2022-11-20T15:27:44;19.23;;;9.75;;
54919;SDS011;63804;53.120;8.764;2022-11-20T15:30:15;15.38;;;8.75;;
54919;SDS011;63804;53.120;8.764;2022-11-20T15:32:43;18.83;;;9.50;;
54919;SDS011;63804;53.120;8.764;2022-11-20T15:35:09;17.27;;;9.15;;
54919;SDS011;63804;53.120;8.764;2022-11-20T15:37:36;15.40;;;8.65;;
54919;SDS011;63804;53.120;8.764;2022-11-20T15:40:12;19.20;;;9.68;;
54919;SDS011;63804;53.120;8.764;2022-11-20T15:42:38;18.20;;;10.07;;
54919;SDS011;63804;53.120;8.764;2022-11-20T15:45:23;19.38;;;10.45;;
54919;SDS011;63804;53.120;8.764;2022-11-20T15:47:49;18.10;;;9.45;;
54919;SDS011;63804;53.120;8.764;2022-11-20T15:50:15;17.27;;;9.70;;
54919;SDS011;63804;53.120;8.764;2022-11-20T15:52:42;18.88;;;10.05;;
54919;SDS011;63804;53.120;8.764;2022-11-20T15:55:09;17.25;;;10.00;;
54919;SDS011;63804;53.120;8.764;2022-11-20T15:57:35;21.60;;;11.50;;
54919;SDS011;63804;53.120;8.764;2022-11-20T16:00:02;19.63;;;10.90;;
54919;SDS011;63804;53.120;8.764;2022-11-20T16:02:28;21.23;;;11.43;;
54919;SDS011;63804;53.120;8.764;2022-11-20T16:04:54;18.00;;;10.05;;
54919;SDS011;63804;53.120;8.764;2022-11-20T16:07:19;18.90;;;10.32;;
54919;SDS011;63804;53.120;8.764;2022-11-20T16:09:45;19.45;;;9.63;;
54919;SDS011;63804;53.120;8.764;2022-11-20T16:12:10;19.83;;;10.05;;
54919;SDS011;63804;53.120;8.764;2022-11-20T16:14:56;18.00;;;9.38;;
54919;SDS011;63804;53.120;8.764;2022-11-20T16:17:45;20.00;;;9.50;;
54919;SDS011;63804;53.120;8.764;2022-11-20T16:20:11;17.15;;;9.52;;
54919;SDS011;63804;53.120;8.764;2022-11-20T16:22:37;21.10;;;9.70;;
54919;SDS011;63804;53.120;8.764;2022-11-20T16:25:02;18.10;;;10.15;;
54919;SDS011;63804;53.120;8.764;2022-11-20T16:27:29;17.52;;;10.32;;